sensor_id;sensor_type;location;lat;lon;timestamp;temperature;humidity
18091;DHT22;9172;49.948;9.208;2023-04-06T00:00:45;3.90;99.90
18091;DHT22;9172;49.948;9.208;2023-04-06T00:03:14;3.90;99.90
18091;DHT22;9172;49.948;9.208;2023-04-06T00:05:44;3.80;99.90
18091;DHT22;9172;49.948;9.208;2023-04-06T00:08:13;3.80;99.90
18091;DHT22;9172;49.948;9.208;2023-04-06T00:10:42;3.80;99.90
18091;DHT22;9172;49.948;9.208;2023-04-06T00:13:12;3.80;99.90
18091;DHT22;9172;49.948;9.208;2023-04-06T00:15:40;3.80;99.90
18091;DHT22;9172;49.948;9.208;2023-04-06T00:18:09;3.70;99.90
18091;DHT22;9172;49.948;9.208;2023-04-06T00:20:38;3.60;99.90
18091;DHT22;9172;49.948;9.208;2023-04-06T00:23:09;3.60;99.90
18091;DHT22;9172;49.948;9.208;2023-04-06T00:25:38;3.60;99.90
18091;DHT22;9172;49.948;9.208;2023-04-06T00:28:07;3.60;99.90
18091;DHT22;9172;49.948;9.208;2023-04-06T00:30:36;3.60;99.90
18091;DHT22;9172;49.948;9.208;2023-04-06T00:33:05;3.60;99.90
18091;DHT22;9172;49.948;9.208;2023-04-06T00:35:35;3.60;99.90
18091;DHT22;9172;49.948;9.208;2023-04-06T00:38:04;3.60;99.90
18091;DHT22;9172;49.948;9.208;2023-04-06T00:40:33;3.60;99.90
18091;DHT22;9172;49.948;9.208;2023-04-06T00:43:03;3.60;99.90
18091;DHT22;9172;49.948;9.208;2023-04-06T00:45:33;3.60;99.90
18091;DHT22;9172;49.948;9.208;2023-04-06T00:48:02;3.50;99.90
18091;DHT22;9172;49.948;9.208;2023-04-06T00:50:31;3.30;99.90
18091;DHT22;9172;49.948;9.208;2023-04-06T00:53:00;3.20;99.90
18091;DHT22;9172;49.948;9.208;2023-04-06T00:55:29;3.20;99.90
18091;DHT22;9172;49.948;9.208;2023-04-06T00:57:59;3.30;99.90
18091;DHT22;9172;49.948;9.208;2023-04-06T01:00:28;3.40;99.90
18091;DHT22;9172;49.948;9.208;2023-04-06T01:02:59;3.40;99.90
18091;DHT22;9172;49.948;9.208;2023-04-06T01:05:28;3.40;99.90
18091;DHT22;9172;49.948;9.208;2023-04-06T01:07:57;3.40;99.90
18091;DHT22;9172;49.948;9.208;2023-04-06T01:10:29;3.40;99.90
18091;DHT22;9172;49.948;9.208;2023-04-06T01:12:58;3.50;99.90
18091;DHT22;9172;49.948;9.208;2023-04-06T01:15:27;3.50;99.90
18091;DHT22;9172;49.948;9.208;2023-04-06T01:17:57;3.50;99.90
18091;DHT22;9172;49.948;9.208;2023-04-06T01:20:26;3.40;99.90
18091;DHT22;9172;49.948;9.208;2023-04-06T01:22:56;3.20;99.90
18091;DHT22;9172;49.948;9.208;2023-04-06T01:25:25;3.10;99.90
18091;DHT22;9172;49.948;9.208;2023-04-06T01:27:54;3.20;99.90
18091;DHT22;9172;49.948;9.208;2023-04-06T01:30:23;3.20;99.90
18091;DHT22;9172;49.948;9.208;2023-04-06T01:32:53;3.30;99.90
18091;DHT22;9172;49.948;9.208;2023-04-06T01:35:22;3.30;99.90
18091;DHT22;9172;49.948;9.208;2023-04-06T01:37:51;3.40;99.90
18091;DHT22;9172;49.948;9.208;2023-04-06T01:40:20;3.40;99.90
18091;DHT22;9172;49.948;9.208;2023-04-06T01:42:49;3.40;99.90
18091;DHT22;9172;49.948;9.208;2023-04-06T01:45:18;3.40;99.90
18091;DHT22;9172;49.948;9.208;2023-04-06T01:47:48;3.50;99.90
18091;DHT22;9172;49.948;9.208;2023-04-06T01:50:18;3.50;99.90
18091;DHT22;9172;49.948;9.208;2023-04-06T01:52:48;3.40;99.90
18091;DHT22;9172;49.948;9.208;2023-04-06T01:55:17;3.40;99.90
18091;DHT22;9172;49.948;9.208;2023-04-06T01:57:47;3.30;99.90
18091;DHT22;9172;49.948;9.208;2023-04-06T02:00:17;3.20;99.90
18091;DHT22;9172;49.948;9.208;2023-04-06T02:02:46;3.20;99.90
18091;DHT22;9172;49.948;9.208;2023-04-06T02:05:15;3.20;99.90
18091;DHT22;9172;49.948;9.208;2023-04-06T02:07:45;3.10;99.90
18091;DHT22;9172;49.948;9.208;2023-04-06T02:10:15;3.00;99.90
18091;DHT22;9172;49.948;9.208;2023-04-06T02:12:43;2.90;99.90
18091;DHT22;9172;49.948;9.208;2023-04-06T02:15:12;3.00;99.90
18091;DHT22;9172;49.948;9.208;2023-04-06T02:17:41;2.90;99.90
18091;DHT22;9172;49.948;9.208;2023-04-06T02:20:11;2.80;99.90
18091;DHT22;9172;49.948;9.208;2023-04-06T02:22:40;2.70;99.90
18091;DHT22;9172;49.948;9.208;2023-04-06T02:25:09;2.70;99.90
18091;DHT22;9172;49.948;9.208;2023-04-06T02:27:39;2.70;99.90
18091;DHT22;9172;49.948;9.208;2023-04-06T02:30:12;2.60;99.90
18091;DHT22;9172;49.948;9.208;2023-04-06T02:32:40;2.50;99.90
18091;DHT22;9172;49.948;9.208;2023-04-06T02:35:10;2.50;99.90
18091;DHT22;9172;49.948;9.208;2023-04-06T02:37:39;2.50;99.90
18091;DHT22;9172;49.948;9.208;2023-04-06T02:40:10;2.40;99.90
18091;DHT22;9172;49.948;9.208;2023-04-06T02:42:40;2.40;99.90
18091;DHT22;9172;49.948;9.208;2023-04-06T02:45:10;2.30;99.90
18091;DHT22;9172;49.948;9.208;2023-04-06T02:47:39;2.30;99.90
18091;DHT22;9172;49.948;9.208;2023-04-06T02:50:11;2.30;99.90
18091;DHT22;9172;49.948;9.208;2023-04-06T02:52:40;2.50;99.90
18091;DHT22;9172;49.948;9.208;2023-04-06T02:55:11;2.60;99.90
18091;DHT22;9172;49.948;9.208;2023-04-06T02:57:40;3.30;99.90
18091;DHT22;9172;49.948;9.208;2023-04-06T03:00:11;2.70;99.90
18091;DHT22;9172;49.948;9.208;2023-04-06T03:02:41;2.70;99.90
18091;DHT22;9172;49.948;9.208;2023-04-06T03:05:10;2.70;99.90
18091;DHT22;9172;49.948;9.208;2023-04-06T03:07:39;2.70;99.90
18091;DHT22;9172;49.948;9.208;2023-04-06T03:10:09;2.70;99.90
18091;DHT22;9172;49.948;9.208;2023-04-06T03:12:39;2.80;99.90
18091;DHT22;9172;49.948;9.208;2023-04-06T03:15:10;2.80;99.90
18091;DHT22;9172;49.948;9.208;2023-04-06T03:17:40;2.80;99.90
18091;DHT22;9172;49.948;9.208;2023-04-06T03:20:10;2.80;99.90
18091;DHT22;9172;49.948;9.208;2023-04-06T03:22:39;2.90;99.90
18091;DHT22;9172;49.948;9.208;2023-04-06T03:25:09;2.90;99.90
18091;DHT22;9172;49.948;9.208;2023-04-06T03:27:38;2.90;99.90
18091;DHT22;9172;49.948;9.208;2023-04-06T03:30:08;2.90;99.90
18091;DHT22;9172;49.948;9.208;2023-04-06T03:32:38;2.80;99.90
18091;DHT22;9172;49.948;9.208;2023-04-06T03:35:08;2.70;99.90
18091;DHT22;9172;49.948;9.208;2023-04-06T03:37:37;2.70;99.90
18091;DHT22;9172;49.948;9.208;2023-04-06T03:40:08;2.70;99.90
18091;DHT22;9172;49.948;9.208;2023-04-06T03:42:37;2.80;99.90
18091;DHT22;9172;49.948;9.208;2023-04-06T03:45:10;2.80;99.90
18091;DHT22;9172;49.948;9.208;2023-04-06T03:47:41;2.90;99.90
18091;DHT22;9172;49.948;9.208;2023-04-06T03:50:11;2.90;99.90
18091;DHT22;9172;49.948;9.208;2023-04-06T03:52:39;2.90;99.90
18091;DHT22;9172;49.948;9.208;2023-04-06T03:55:09;2.90;99.90
18091;DHT22;9172;49.948;9.208;2023-04-06T03:57:38;2.90;99.90
18091;DHT22;9172;49.948;9.208;2023-04-06T04:02:48;2.90;99.90
18091;DHT22;9172;49.948;9.208;2023-04-06T04:05:17;3.00;99.90
18091;DHT22;9172;49.948;9.208;2023-04-06T04:07:45;3.00;99.90
18091;DHT22;9172;49.948;9.208;2023-04-06T04:10:33;3.00;99.90
18091;DHT22;9172;49.948;9.208;2023-04-06T04:13:03;3.00;99.90
18091;DHT22;9172;49.948;9.208;2023-04-06T04:15:33;2.90;99.90
18091;DHT22;9172;49.948;9.208;2023-04-06T04:18:03;2.80;99.90
18091;DHT22;9172;49.948;9.208;2023-04-06T04:20:32;2.70;99.90
18091;DHT22;9172;49.948;9.208;2023-04-06T04:23:01;2.70;99.90
18091;DHT22;9172;49.948;9.208;2023-04-06T04:25:30;2.60;99.90
18091;DHT22;9172;49.948;9.208;2023-04-06T04:27:59;2.60;99.90
18091;DHT22;9172;49.948;9.208;2023-04-06T04:30:29;2.60;99.90
18091;DHT22;9172;49.948;9.208;2023-04-06T04:32:58;2.60;99.90
18091;DHT22;9172;49.948;9.208;2023-04-06T04:35:27;2.60;99.90
18091;DHT22;9172;49.948;9.208;2023-04-06T04:37:57;2.60;99.90
18091;DHT22;9172;49.948;9.208;2023-04-06T04:40:26;2.60;99.90
18091;DHT22;9172;49.948;9.208;2023-04-06T04:42:56;2.70;99.90
18091;DHT22;9172;49.948;9.208;2023-04-06T04:45:25;2.70;99.90
18091;DHT22;9172;49.948;9.208;2023-04-06T04:47:54;2.60;99.90
18091;DHT22;9172;49.948;9.208;2023-04-06T04:50:24;2.60;99.90
18091;DHT22;9172;49.948;9.208;2023-04-06T04:52:52;2.60;99.90
18091;DHT22;9172;49.948;9.208;2023-04-06T04:55:21;2.70;99.90
18091;DHT22;9172;49.948;9.208;2023-04-06T04:57:50;2.70;99.90
18091;DHT22;9172;49.948;9.208;2023-04-06T05:00:19;2.70;99.90
18091;DHT22;9172;49.948;9.208;2023-04-06T05:02:48;2.70;99.90
18091;DHT22;9172;49.948;9.208;2023-04-06T05:05:17;2.70;99.90
18091;DHT22;9172;49.948;9.208;2023-04-06T05:07:47;2.70;99.90
18091;DHT22;9172;49.948;9.208;2023-04-06T05:10:16;2.70;99.90
18091;DHT22;9172;49.948;9.208;2023-04-06T05:12:44;2.80;99.90
18091;DHT22;9172;49.948;9.208;2023-04-06T05:15:14;2.70;99.90
18091;DHT22;9172;49.948;9.208;2023-04-06T05:17:44;2.70;99.90
18091;DHT22;9172;49.948;9.208;2023-04-06T05:20:13;2.70;99.90
18091;DHT22;9172;49.948;9.208;2023-04-06T05:22:43;2.80;99.90
18091;DHT22;9172;49.948;9.208;2023-04-06T05:25:12;2.70;99.90
18091;DHT22;9172;49.948;9.208;2023-04-06T05:27:41;2.80;99.90
18091;DHT22;9172;49.948;9.208;2023-04-06T05:30:11;2.80;99.90
18091;DHT22;9172;49.948;9.208;2023-04-06T05:32:42;2.80;99.90
18091;DHT22;9172;49.948;9.208;2023-04-06T05:35:11;2.90;99.90
18091;DHT22;9172;49.948;9.208;2023-04-06T05:37:41;2.90;99.90
18091;DHT22;9172;49.948;9.208;2023-04-06T05:40:10;2.90;99.90
18091;DHT22;9172;49.948;9.208;2023-04-06T05:42:40;2.90;99.90
18091;DHT22;9172;49.948;9.208;2023-04-06T05:45:11;3.00;99.90
18091;DHT22;9172;49.948;9.208;2023-04-06T05:47:42;3.00;99.90
18091;DHT22;9172;49.948;9.208;2023-04-06T05:50:11;3.00;99.90
18091;DHT22;9172;49.948;9.208;2023-04-06T05:52:40;3.00;99.90
18091;DHT22;9172;49.948;9.208;2023-04-06T05:55:12;3.00;99.90
18091;DHT22;9172;49.948;9.208;2023-04-06T05:57:40;3.10;99.90
18091;DHT22;9172;49.948;9.208;2023-04-06T06:00:13;3.10;99.90
18091;DHT22;9172;49.948;9.208;2023-04-06T06:02:42;3.20;99.90
18091;DHT22;9172;49.948;9.208;2023-04-06T06:05:12;3.20;99.90
18091;DHT22;9172;49.948;9.208;2023-04-06T06:07:41;3.30;99.90
18091;DHT22;9172;49.948;9.208;2023-04-06T06:10:13;3.30;99.90
18091;DHT22;9172;49.948;9.208;2023-04-06T06:12:42;3.30;99.90
18091;DHT22;9172;49.948;9.208;2023-04-06T06:15:12;3.40;99.90
18091;DHT22;9172;49.948;9.208;2023-04-06T06:17:41;3.40;99.90
18091;DHT22;9172;49.948;9.208;2023-04-06T06:20:11;3.50;99.90
18091;DHT22;9172;49.948;9.208;2023-04-06T06:22:40;3.50;99.90
18091;DHT22;9172;49.948;9.208;2023-04-06T06:25:09;3.60;99.90
18091;DHT22;9172;49.948;9.208;2023-04-06T06:30:17;3.70;99.90
18091;DHT22;9172;49.948;9.208;2023-04-06T06:32:47;3.80;99.90
18091;DHT22;9172;49.948;9.208;2023-04-06T06:35:16;3.80;99.90
18091;DHT22;9172;49.948;9.208;2023-04-06T06:37:45;3.70;99.90
18091;DHT22;9172;49.948;9.208;2023-04-06T06:40:14;3.80;99.90
18091;DHT22;9172;49.948;9.208;2023-04-06T06:42:44;3.80;99.90
18091;DHT22;9172;49.948;9.208;2023-04-06T06:45:13;3.90;99.90
18091;DHT22;9172;49.948;9.208;2023-04-06T06:47:43;3.90;99.90
18091;DHT22;9172;49.948;9.208;2023-04-06T06:50:12;4.00;99.90
18091;DHT22;9172;49.948;9.208;2023-04-06T06:52:41;4.20;99.90
18091;DHT22;9172;49.948;9.208;2023-04-06T06:55:11;4.30;99.90
18091;DHT22;9172;49.948;9.208;2023-04-06T06:57:41;4.50;99.90
18091;DHT22;9172;49.948;9.208;2023-04-06T07:00:12;4.70;99.90
18091;DHT22;9172;49.948;9.208;2023-04-06T07:02:42;4.80;99.90
18091;DHT22;9172;49.948;9.208;2023-04-06T07:05:12;4.80;99.90
18091;DHT22;9172;49.948;9.208;2023-04-06T07:07:41;4.80;99.90
18091;DHT22;9172;49.948;9.208;2023-04-06T07:10:11;4.90;99.90
18091;DHT22;9172;49.948;9.208;2023-04-06T07:12:40;4.90;99.90
18091;DHT22;9172;49.948;9.208;2023-04-06T07:15:10;5.00;99.90
18091;DHT22;9172;49.948;9.208;2023-04-06T07:17:39;5.00;99.90
18091;DHT22;9172;49.948;9.208;2023-04-06T07:20:10;5.10;99.90
18091;DHT22;9172;49.948;9.208;2023-04-06T07:22:40;5.20;99.90
18091;DHT22;9172;49.948;9.208;2023-04-06T07:25:10;5.30;99.90
18091;DHT22;9172;49.948;9.208;2023-04-06T07:27:39;5.50;99.90
18091;DHT22;9172;49.948;9.208;2023-04-06T07:30:10;5.70;99.90
18091;DHT22;9172;49.948;9.208;2023-04-06T07:32:40;5.90;99.90
18091;DHT22;9172;49.948;9.208;2023-04-06T07:35:09;6.20;99.90
18091;DHT22;9172;49.948;9.208;2023-04-06T07:37:38;6.40;99.90
18091;DHT22;9172;49.948;9.208;2023-04-06T07:40:08;6.70;99.90
18091;DHT22;9172;49.948;9.208;2023-04-06T07:42:37;7.00;99.90
18091;DHT22;9172;49.948;9.208;2023-04-06T07:45:08;7.20;99.80
18091;DHT22;9172;49.948;9.208;2023-04-06T07:47:36;7.40;99.20
18091;DHT22;9172;49.948;9.208;2023-04-06T07:50:07;7.60;97.70
18091;DHT22;9172;49.948;9.208;2023-04-06T07:52:36;7.70;97.40
18091;DHT22;9172;49.948;9.208;2023-04-06T07:55:06;7.80;96.60
18091;DHT22;9172;49.948;9.208;2023-04-06T07:57:35;7.90;96.30
18091;DHT22;9172;49.948;9.208;2023-04-06T08:00:05;8.00;95.70
18091;DHT22;9172;49.948;9.208;2023-04-06T08:02:36;8.00;95.60
18091;DHT22;9172;49.948;9.208;2023-04-06T08:05:05;8.10;95.80
18091;DHT22;9172;49.948;9.208;2023-04-06T08:07:35;8.30;95.90
18091;DHT22;9172;49.948;9.208;2023-04-06T08:10:05;8.40;95.80
18091;DHT22;9172;49.948;9.208;2023-04-06T08:12:34;8.50;95.30
18091;DHT22;9172;49.948;9.208;2023-04-06T08:15:04;8.60;94.80
18091;DHT22;9172;49.948;9.208;2023-04-06T08:17:35;8.80;95.70
18091;DHT22;9172;49.948;9.208;2023-04-06T08:20:05;9.00;95.50
18091;DHT22;9172;49.948;9.208;2023-04-06T08:22:33;9.10;95.50
18091;DHT22;9172;49.948;9.208;2023-04-06T08:25:02;9.20;94.40
18091;DHT22;9172;49.948;9.208;2023-04-06T08:27:31;9.20;94.20
18091;DHT22;9172;49.948;9.208;2023-04-06T08:30:00;9.30;94.70
18091;DHT22;9172;49.948;9.208;2023-04-06T08:32:29;9.40;94.70
18091;DHT22;9172;49.948;9.208;2023-04-06T08:34:58;9.50;94.70
18091;DHT22;9172;49.948;9.208;2023-04-06T08:37:28;9.60;94.30
18091;DHT22;9172;49.948;9.208;2023-04-06T08:39:58;9.70;93.90
18091;DHT22;9172;49.948;9.208;2023-04-06T08:45:08;9.80;92.80
18091;DHT22;9172;49.948;9.208;2023-04-06T08:47:37;9.90;93.30
18091;DHT22;9172;49.948;9.208;2023-04-06T08:50:09;10.00;92.90
18091;DHT22;9172;49.948;9.208;2023-04-06T08:52:39;10.00;92.40
18091;DHT22;9172;49.948;9.208;2023-04-06T08:55:09;10.10;92.20
18091;DHT22;9172;49.948;9.208;2023-04-06T08:57:41;10.20;92.40
18091;DHT22;9172;49.948;9.208;2023-04-06T09:00:12;10.30;92.30
18091;DHT22;9172;49.948;9.208;2023-04-06T09:02:45;10.40;92.80
18091;DHT22;9172;49.948;9.208;2023-04-06T09:05:15;10.50;92.60
18091;DHT22;9172;49.948;9.208;2023-04-06T09:07:45;10.50;91.80
18091;DHT22;9172;49.948;9.208;2023-04-06T09:10:14;10.50;92.60
18091;DHT22;9172;49.948;9.208;2023-04-06T09:12:44;10.60;91.80
18091;DHT22;9172;49.948;9.208;2023-04-06T09:15:19;10.60;92.60
18091;DHT22;9172;49.948;9.208;2023-04-06T09:17:49;10.80;91.80
18091;DHT22;9172;49.948;9.208;2023-04-06T09:20:24;10.80;92.00
18091;DHT22;9172;49.948;9.208;2023-04-06T09:22:53;10.90;91.90
18091;DHT22;9172;49.948;9.208;2023-04-06T09:25:24;11.00;91.80
18091;DHT22;9172;49.948;9.208;2023-04-06T09:28:01;11.10;91.40
18091;DHT22;9172;49.948;9.208;2023-04-06T09:30:30;11.20;91.20
18091;DHT22;9172;49.948;9.208;2023-04-06T09:33:00;11.20;90.30
18091;DHT22;9172;49.948;9.208;2023-04-06T09:35:29;11.20;90.30
18091;DHT22;9172;49.948;9.208;2023-04-06T09:38:10;11.30;90.50
18091;DHT22;9172;49.948;9.208;2023-04-06T09:40:30;11.30;90.50
18091;DHT22;9172;49.948;9.208;2023-04-06T09:43:00;11.40;91.50
18091;DHT22;9172;49.948;9.208;2023-04-06T09:45:32;11.50;91.50
18091;DHT22;9172;49.948;9.208;2023-04-06T09:48:02;11.60;90.70
18091;DHT22;9172;49.948;9.208;2023-04-06T09:50:32;11.70;91.30
18091;DHT22;9172;49.948;9.208;2023-04-06T09:53:02;11.60;91.80
18091;DHT22;9172;49.948;9.208;2023-04-06T09:55:34;11.60;91.60
18091;DHT22;9172;49.948;9.208;2023-04-06T09:58:05;11.70;91.20
18091;DHT22;9172;49.948;9.208;2023-04-06T10:00:40;11.60;90.50
18091;DHT22;9172;49.948;9.208;2023-04-06T10:03:11;11.60;91.20
18091;DHT22;9172;49.948;9.208;2023-04-06T10:05:46;11.70;91.20
18091;DHT22;9172;49.948;9.208;2023-04-06T10:08:15;11.70;90.30
18091;DHT22;9172;49.948;9.208;2023-04-06T10:10:45;11.80;90.80
18091;DHT22;9172;49.948;9.208;2023-04-06T10:13:14;11.80;90.80
18091;DHT22;9172;49.948;9.208;2023-04-06T10:15:43;11.90;91.30
18091;DHT22;9172;49.948;9.208;2023-04-06T10:18:13;12.00;91.30
18091;DHT22;9172;49.948;9.208;2023-04-06T10:20:47;11.90;91.50
18091;DHT22;9172;49.948;9.208;2023-04-06T10:23:19;11.90;92.30
18091;DHT22;9172;49.948;9.208;2023-04-06T10:25:56;12.00;91.30
18091;DHT22;9172;49.948;9.208;2023-04-06T10:28:25;12.10;91.40
18091;DHT22;9172;49.948;9.208;2023-04-06T10:30:59;12.30;91.40
18091;DHT22;9172;49.948;9.208;2023-04-06T10:33:28;12.30;91.30
18091;DHT22;9172;49.948;9.208;2023-04-06T10:35:57;12.30;90.70
18091;DHT22;9172;49.948;9.208;2023-04-06T10:38:45;12.20;91.00
18091;DHT22;9172;49.948;9.208;2023-04-06T10:41:16;12.30;91.70
18091;DHT22;9172;49.948;9.208;2023-04-06T10:43:54;12.30;90.50
18091;DHT22;9172;49.948;9.208;2023-04-06T10:46:24;12.40;90.90
18091;DHT22;9172;49.948;9.208;2023-04-06T10:48:49;12.60;90.30
18091;DHT22;9172;49.948;9.208;2023-04-06T10:51:19;12.80;90.80
18091;DHT22;9172;49.948;9.208;2023-04-06T10:53:50;12.70;90.70
18091;DHT22;9172;49.948;9.208;2023-04-06T10:56:22;12.50;87.30
18091;DHT22;9172;49.948;9.208;2023-04-06T10:58:54;12.10;90.40
18091;DHT22;9172;49.948;9.208;2023-04-06T11:01:24;12.20;90.50
18091;DHT22;9172;49.948;9.208;2023-04-06T11:03:56;12.30;91.00
18091;DHT22;9172;49.948;9.208;2023-04-06T11:06:28;12.40;91.40
18091;DHT22;9172;49.948;9.208;2023-04-06T11:08:58;12.30;90.10
18091;DHT22;9172;49.948;9.208;2023-04-06T11:11:28;12.30;91.10
18091;DHT22;9172;49.948;9.208;2023-04-06T11:13:58;12.30;90.40
18091;DHT22;9172;49.948;9.208;2023-04-06T11:16:28;12.40;91.00
18091;DHT22;9172;49.948;9.208;2023-04-06T11:18:59;12.40;91.20
18091;DHT22;9172;49.948;9.208;2023-04-06T11:21:35;12.20;91.30
18091;DHT22;9172;49.948;9.208;2023-04-06T11:24:09;12.10;90.90
18091;DHT22;9172;49.948;9.208;2023-04-06T11:26:42;12.00;91.40
18091;DHT22;9172;49.948;9.208;2023-04-06T11:29:12;12.00;91.50
18091;DHT22;9172;49.948;9.208;2023-04-06T11:31:42;11.90;90.80
18091;DHT22;9172;49.948;9.208;2023-04-06T11:34:15;11.80;90.40
18091;DHT22;9172;49.948;9.208;2023-04-06T11:36:45;11.70;90.20
18091;DHT22;9172;49.948;9.208;2023-04-06T11:39:18;11.60;91.20
18091;DHT22;9172;49.948;9.208;2023-04-06T11:41:49;11.60;91.40
18091;DHT22;9172;49.948;9.208;2023-04-06T11:44:28;11.60;92.30
18091;DHT22;9172;49.948;9.208;2023-04-06T11:46:57;11.60;91.00
18091;DHT22;9172;49.948;9.208;2023-04-06T11:49:28;11.60;91.60
18091;DHT22;9172;49.948;9.208;2023-04-06T11:51:57;11.60;90.60
18091;DHT22;9172;49.948;9.208;2023-04-06T11:54:33;11.60;91.60
18091;DHT22;9172;49.948;9.208;2023-04-06T11:57:03;11.60;90.70
18091;DHT22;9172;49.948;9.208;2023-04-06T11:59:32;11.60;90.70
18091;DHT22;9172;49.948;9.208;2023-04-06T12:02:03;11.60;90.20
18091;DHT22;9172;49.948;9.208;2023-04-06T12:04:32;11.60;90.80
18091;DHT22;9172;49.948;9.208;2023-04-06T12:07:02;11.70;90.60
18091;DHT22;9172;49.948;9.208;2023-04-06T12:09:31;11.80;90.60
18091;DHT22;9172;49.948;9.208;2023-04-06T12:12:03;11.90;90.60
18091;DHT22;9172;49.948;9.208;2023-04-06T12:14:33;12.00;89.80
18091;DHT22;9172;49.948;9.208;2023-04-06T12:17:02;12.00;90.10
18091;DHT22;9172;49.948;9.208;2023-04-06T12:19:31;12.00;90.20
18091;DHT22;9172;49.948;9.208;2023-04-06T12:22:00;12.10;90.20
18091;DHT22;9172;49.948;9.208;2023-04-06T12:24:28;12.10;90.60
18091;DHT22;9172;49.948;9.208;2023-04-06T12:26:58;12.20;90.10
18091;DHT22;9172;49.948;9.208;2023-04-06T12:29:27;12.30;89.00
18091;DHT22;9172;49.948;9.208;2023-04-06T12:31:55;12.30;90.20
18091;DHT22;9172;49.948;9.208;2023-04-06T12:34:26;12.30;88.40
18091;DHT22;9172;49.948;9.208;2023-04-06T12:39:32;12.40;88.50
18091;DHT22;9172;49.948;9.208;2023-04-06T12:42:02;12.50;89.70
18091;DHT22;9172;49.948;9.208;2023-04-06T12:44:33;12.70;86.50
18091;DHT22;9172;49.948;9.208;2023-04-06T12:47:02;12.70;86.40
18091;DHT22;9172;49.948;9.208;2023-04-06T12:49:31;12.70;87.90
18091;DHT22;9172;49.948;9.208;2023-04-06T12:52:02;12.50;85.90
18091;DHT22;9172;49.948;9.208;2023-04-06T12:54:31;12.30;86.90
18091;DHT22;9172;49.948;9.208;2023-04-06T12:57:01;12.40;87.50
18091;DHT22;9172;49.948;9.208;2023-04-06T12:59:30;12.40;87.80
18091;DHT22;9172;49.948;9.208;2023-04-06T13:02:01;12.50;88.00
18091;DHT22;9172;49.948;9.208;2023-04-06T13:04:31;12.50;88.20
18091;DHT22;9172;49.948;9.208;2023-04-06T13:07:00;12.60;87.20
18091;DHT22;9172;49.948;9.208;2023-04-06T13:09:31;12.60;86.90
18091;DHT22;9172;49.948;9.208;2023-04-06T13:12:00;12.70;88.50
18091;DHT22;9172;49.948;9.208;2023-04-06T13:14:29;12.70;84.90
18091;DHT22;9172;49.948;9.208;2023-04-06T13:16:59;12.70;85.50
18091;DHT22;9172;49.948;9.208;2023-04-06T13:19:28;12.60;85.70
18091;DHT22;9172;49.948;9.208;2023-04-06T13:21:58;12.60;85.90
18091;DHT22;9172;49.948;9.208;2023-04-06T13:24:27;12.70;87.20
18091;DHT22;9172;49.948;9.208;2023-04-06T13:26:56;12.80;85.90
18091;DHT22;9172;49.948;9.208;2023-04-06T13:29:25;12.80;84.60
18091;DHT22;9172;49.948;9.208;2023-04-06T13:31:55;12.80;82.30
18091;DHT22;9172;49.948;9.208;2023-04-06T13:34:24;12.70;82.20
18091;DHT22;9172;49.948;9.208;2023-04-06T13:36:54;12.50;82.10
18091;DHT22;9172;49.948;9.208;2023-04-06T13:39:24;12.50;84.70
18091;DHT22;9172;49.948;9.208;2023-04-06T13:41:55;12.60;85.80
18091;DHT22;9172;49.948;9.208;2023-04-06T13:44:24;12.70;87.00
18091;DHT22;9172;49.948;9.208;2023-04-06T13:46:54;12.70;86.20
18091;DHT22;9172;49.948;9.208;2023-04-06T13:49:23;12.70;83.90
18091;DHT22;9172;49.948;9.208;2023-04-06T13:51:53;12.60;82.30
18091;DHT22;9172;49.948;9.208;2023-04-06T13:54:23;12.60;83.90
18091;DHT22;9172;49.948;9.208;2023-04-06T13:56:53;12.60;85.70
18091;DHT22;9172;49.948;9.208;2023-04-06T13:59:22;12.70;83.40
18091;DHT22;9172;49.948;9.208;2023-04-06T14:01:50;12.70;81.60
18091;DHT22;9172;49.948;9.208;2023-04-06T14:04:21;12.70;82.80
18091;DHT22;9172;49.948;9.208;2023-04-06T14:06:50;12.70;83.70
18091;DHT22;9172;49.948;9.208;2023-04-06T14:09:18;12.70;83.50
18091;DHT22;9172;49.948;9.208;2023-04-06T14:11:48;12.70;80.80
18091;DHT22;9172;49.948;9.208;2023-04-06T14:14:17;12.80;83.50
18091;DHT22;9172;49.948;9.208;2023-04-06T14:16:48;12.90;82.90
18091;DHT22;9172;49.948;9.208;2023-04-06T14:19:18;12.90;81.90
18091;DHT22;9172;49.948;9.208;2023-04-06T14:21:48;12.80;79.20
18091;DHT22;9172;49.948;9.208;2023-04-06T14:24:20;12.60;80.40
18091;DHT22;9172;49.948;9.208;2023-04-06T14:26:49;12.60;82.90
18091;DHT22;9172;49.948;9.208;2023-04-06T14:29:18;12.70;82.60
18091;DHT22;9172;49.948;9.208;2023-04-06T14:31:48;12.70;81.30
18091;DHT22;9172;49.948;9.208;2023-04-06T14:34:17;12.60;80.60
18091;DHT22;9172;49.948;9.208;2023-04-06T14:36:46;12.60;80.80
18091;DHT22;9172;49.948;9.208;2023-04-06T14:39:15;12.60;81.00
18091;DHT22;9172;49.948;9.208;2023-04-06T14:41:45;12.60;80.50
18091;DHT22;9172;49.948;9.208;2023-04-06T14:44:15;12.70;78.10
18091;DHT22;9172;49.948;9.208;2023-04-06T14:46:44;12.70;81.00
18091;DHT22;9172;49.948;9.208;2023-04-06T14:49:13;12.70;82.20
18091;DHT22;9172;49.948;9.208;2023-04-06T14:51:42;12.70;82.30
18091;DHT22;9172;49.948;9.208;2023-04-06T14:54:11;12.80;81.80
18091;DHT22;9172;49.948;9.208;2023-04-06T14:56:40;12.80;81.60
18091;DHT22;9172;49.948;9.208;2023-04-06T14:59:12;12.80;79.90
18091;DHT22;9172;49.948;9.208;2023-04-06T15:01:41;12.80;76.20
18091;DHT22;9172;49.948;9.208;2023-04-06T15:04:09;12.70;77.30
18091;DHT22;9172;49.948;9.208;2023-04-06T15:06:39;12.70;76.90
18091;DHT22;9172;49.948;9.208;2023-04-06T15:09:16;12.80;77.20
18091;DHT22;9172;49.948;9.208;2023-04-06T15:12:08;12.70;78.50
18091;DHT22;9172;49.948;9.208;2023-04-06T15:14:36;12.70;75.90
18091;DHT22;9172;49.948;9.208;2023-04-06T15:17:05;12.70;76.80
18091;DHT22;9172;49.948;9.208;2023-04-06T15:19:34;12.70;78.20
18091;DHT22;9172;49.948;9.208;2023-04-06T15:22:03;12.80;78.30
18091;DHT22;9172;49.948;9.208;2023-04-06T15:24:32;12.70;77.30
18091;DHT22;9172;49.948;9.208;2023-04-06T15:27:01;12.70;78.50
18091;DHT22;9172;49.948;9.208;2023-04-06T15:29:38;12.70;78.90
18091;DHT22;9172;49.948;9.208;2023-04-06T15:32:34;12.70;79.70
18091;DHT22;9172;49.948;9.208;2023-04-06T15:35:11;12.70;79.00
18091;DHT22;9172;49.948;9.208;2023-04-06T15:37:40;12.70;79.50
18091;DHT22;9172;49.948;9.208;2023-04-06T15:40:10;12.70;77.80
18091;DHT22;9172;49.948;9.208;2023-04-06T15:42:51;12.70;78.60
18091;DHT22;9172;49.948;9.208;2023-04-06T15:45:23;12.70;79.70
18091;DHT22;9172;49.948;9.208;2023-04-06T15:47:53;12.70;78.00
18091;DHT22;9172;49.948;9.208;2023-04-06T15:50:22;12.80;78.50
18091;DHT22;9172;49.948;9.208;2023-04-06T15:52:51;12.70;78.30
18091;DHT22;9172;49.948;9.208;2023-04-06T15:55:22;12.60;79.40
18091;DHT22;9172;49.948;9.208;2023-04-06T15:57:51;12.60;80.50
18091;DHT22;9172;49.948;9.208;2023-04-06T16:00:21;12.60;80.50
18091;DHT22;9172;49.948;9.208;2023-04-06T16:02:55;12.60;82.20
18091;DHT22;9172;49.948;9.208;2023-04-06T16:05:29;12.60;82.30
18091;DHT22;9172;49.948;9.208;2023-04-06T16:07:58;12.50;82.10
18091;DHT22;9172;49.948;9.208;2023-04-06T16:10:27;12.50;82.10
18091;DHT22;9172;49.948;9.208;2023-04-06T16:12:56;12.50;81.80
18091;DHT22;9172;49.948;9.208;2023-04-06T16:18:02;12.40;84.20
18091;DHT22;9172;49.948;9.208;2023-04-06T16:20:33;12.30;83.60
18091;DHT22;9172;49.948;9.208;2023-04-06T16:23:03;12.30;83.80
18091;DHT22;9172;49.948;9.208;2023-04-06T16:25:32;12.20;83.50